YMA7555 UAAA-UTTT
Flight info
| Callsign | YMA7555 |
|---|---|
| Flight time | N/A |
| Altitude | 32000 |
| Route | EKLAT AGLEK TAR KOLAM BAMUT |
| Aircraft | B738/M-VGDW/C |
Departure
| Time | 2026-05-05 09:28 |
|---|---|
| Airport | Almaty International Airport (UAAA) |
Arrival
| Time | N/A |
|---|---|
| Airport | UTTT |
| Time | Latitude | Longitude | Altitude | Speed | Heading |
|---|---|---|---|---|---|
| 2026-05-05 09:16 | 43.35030 | 77.01245 | 2228 ft | 0 kts | 245° |
| 2026-05-05 09:19 | 43.35031 | 77.01249 | 2224 ft | 3 kts | 244° |
| 2026-05-05 09:20 | 43.35062 | 77.01296 | 2225 ft | 4 kts | 205° |
| 2026-05-05 09:20 | 43.35065 | 77.01300 | 2225 ft | 1 kts | 188° |
| 2026-05-05 09:20 | 43.35061 | 77.01299 | 2225 ft | 0 kts | 188° |
| 2026-05-05 09:21 | 43.35054 | 77.01299 | 2223 ft | 5 kts | 179° |
| 2026-05-05 09:21 | 43.34990 | 77.01379 | 2225 ft | 22 kts | 140° |
| 2026-05-05 09:22 | 43.34912 | 77.01418 | 2227 ft | 13 kts | 161° |
| 2026-05-05 09:22 | 43.34779 | 77.01508 | 2224 ft | 27 kts | 148° |
| 2026-05-05 09:22 | 43.34616 | 77.01540 | 2226 ft | 20 kts | 216° |
| 2026-05-05 09:22 | 43.34549 | 77.01482 | 2227 ft | 4 kts | 165° |
| 2026-05-05 09:23 | 43.34464 | 77.01542 | 2226 ft | 25 kts | 152° |
| 2026-05-05 09:23 | 43.34314 | 77.01632 | 2226 ft | 23 kts | 151° |
| 2026-05-05 09:23 | 43.34248 | 77.01676 | 2229 ft | 1 kts | 158° |
| 2026-05-05 09:23 | 43.34246 | 77.01676 | 2229 ft | 0 kts | 158° |
| 2026-05-05 09:25 | 43.34241 | 77.01679 | 2226 ft | 2 kts | 159° |
| 2026-05-05 09:26 | 43.34227 | 77.01686 | 2229 ft | 1 kts | 162° |
| 2026-05-05 09:26 | 43.34177 | 77.01733 | 2225 ft | 15 kts | 130° |
| 2026-05-05 09:26 | 43.34162 | 77.01817 | 2229 ft | 3 kts | 72° |
| 2026-05-05 09:26 | 43.34164 | 77.01822 | 2229 ft | 0 kts | 62° |
| 2026-05-05 09:27 | 43.34264 | 77.02024 | 2228 ft | 62 kts | 54° |
| 2026-05-05 09:27 | 43.34641 | 77.02774 | 2225 ft | 129 kts | 56° |
| 2026-05-05 09:28 | 43.35264 | 77.04047 | 2223 ft | 186 kts | 56° |
| 2026-05-05 09:28 | 43.36039 | 77.05619 | 2571 ft | 212 kts | 56° |
| 2026-05-05 09:28 | 43.36918 | 77.07357 | 3008 ft | 228 kts | 54° |
| 2026-05-05 09:28 | 43.37845 | 77.09118 | 3442 ft | 226 kts | 54° |
| 2026-05-05 09:29 | 43.38767 | 77.10877 | 3881 ft | 229 kts | 54° |
| 2026-05-05 09:29 | 43.39699 | 77.12659 | 4296 ft | 230 kts | 54° |
| 2026-05-05 09:29 | 43.40636 | 77.14457 | 4686 ft | 232 kts | 54° |
| 2026-05-05 09:29 | 43.41762 | 77.16057 | 4954 ft | 236 kts | 31° |
| 2026-05-05 09:30 | 43.43322 | 77.16648 | 5086 ft | 235 kts | 356° |
| 2026-05-05 09:30 | 43.44884 | 77.15968 | 5154 ft | 239 kts | 334° |
| 2026-05-05 09:30 | 43.46386 | 77.15000 | 5677 ft | 239 kts | 336° |
| 2026-05-05 09:30 | 43.47929 | 77.14047 | 6295 ft | 248 kts | 336° |
| 2026-05-05 09:31 | 43.49552 | 77.13046 | 6843 ft | 263 kts | 336° |
| 2026-05-05 09:31 | 43.51263 | 77.11983 | 7346 ft | 277 kts | 333° |
| 2026-05-05 09:31 | 43.52761 | 77.10262 | 7679 ft | 287 kts | 303° |
| 2026-05-05 09:31 | 43.53410 | 77.07714 | 8049 ft | 281 kts | 278° |
| 2026-05-05 09:32 | 43.53669 | 77.05045 | 8688 ft | 283 kts | 278° |
| 2026-05-05 09:32 | 43.53956 | 77.02314 | 9329 ft | 292 kts | 278° |
| 2026-05-05 09:32 | 43.54260 | 76.99517 | 9932 ft | 297 kts | 278° |
| 2026-05-05 09:32 | 43.54420 | 76.96676 | 10361 ft | 302 kts | 262° |
| 2026-05-05 09:33 | 43.53691 | 76.93930 | 10733 ft | 313 kts | 238° |
| 2026-05-05 09:33 | 43.52513 | 76.91369 | 11298 ft | 320 kts | 236° |
| 2026-05-05 09:33 | 43.51294 | 76.88741 | 11853 ft | 332 kts | 236° |
| 2026-05-05 09:33 | 43.50018 | 76.86018 | 12373 ft | 345 kts | 235° |
| 2026-05-05 09:34 | 43.48669 | 76.83199 | 12859 ft | 358 kts | 235° |
| 2026-05-05 09:34 | 43.47283 | 76.80287 | 13332 ft | 369 kts | 234° |
| 2026-05-05 09:34 | 43.45842 | 76.77322 | 13808 ft | 376 kts | 234° |
| 2026-05-05 09:34 | 43.44374 | 76.74318 | 14224 ft | 379 kts | 234° |
| 2026-05-05 09:35 | 43.42904 | 76.71299 | 14621 ft | 381 kts | 234° |
| 2026-05-05 09:35 | 43.39928 | 76.65215 | 15434 ft | 386 kts | 233° |
| 2026-05-05 09:35 | 43.38391 | 76.62175 | 15854 ft | 389 kts | 233° |
| 2026-05-05 09:36 | 43.36833 | 76.59113 | 16256 ft | 392 kts | 233° |
| 2026-05-05 09:36 | 43.35285 | 76.56015 | 16661 ft | 394 kts | 234° |
| 2026-05-05 09:36 | 43.33748 | 76.52889 | 17065 ft | 396 kts | 234° |
| 2026-05-05 09:36 | 43.32205 | 76.49746 | 17480 ft | 399 kts | 234° |
| 2026-05-05 09:37 | 43.30647 | 76.46580 | 17908 ft | 401 kts | 234° |
| 2026-05-05 09:37 | 43.29072 | 76.43409 | 18319 ft | 404 kts | 233° |
| 2026-05-05 09:37 | 43.27742 | 76.40004 | 18602 ft | 410 kts | 252° |
| 2026-05-05 09:37 | 43.27350 | 76.36138 | 18889 ft | 410 kts | 269° |
| 2026-05-05 09:38 | 43.27365 | 76.32244 | 19298 ft | 408 kts | 270° |
| 2026-05-05 09:38 | 43.27393 | 76.28348 | 19701 ft | 409 kts | 270° |
| 2026-05-05 09:38 | 43.27414 | 76.24438 | 20080 ft | 411 kts | 270° |
| 2026-05-05 09:38 | 43.27430 | 76.20512 | 20447 ft | 413 kts | 270° |
| 2026-05-05 09:39 | 43.27440 | 76.16563 | 20808 ft | 415 kts | 270° |
| 2026-05-05 09:39 | 43.27444 | 76.12600 | 21157 ft | 415 kts | 270° |
| 2026-05-05 09:39 | 43.27442 | 76.08637 | 21507 ft | 415 kts | 270° |
| 2026-05-05 09:39 | 43.27438 | 76.04738 | 21862 ft | 414 kts | 270° |
| 2026-05-05 09:40 | 43.27536 | 76.00739 | 22197 ft | 415 kts | 280° |
| 2026-05-05 09:40 | 43.28233 | 75.96891 | 22539 ft | 415 kts | 288° |
| 2026-05-05 09:40 | 43.29095 | 75.93174 | 22927 ft | 415 kts | 288° |
| 2026-05-05 09:40 | 43.29980 | 75.89390 | 23312 ft | 416 kts | 288° |
| 2026-05-05 09:41 | 43.30848 | 75.85532 | 23629 ft | 419 kts | 287° |
| 2026-05-05 09:41 | 43.31688 | 75.81705 | 23906 ft | 419 kts | 287° |
| 2026-05-05 09:41 | 43.32532 | 75.77872 | 24205 ft | 420 kts | 287° |
| 2026-05-05 09:41 | 43.33360 | 75.74074 | 24499 ft | 422 kts | 287° |
| 2026-05-05 09:42 | 43.34175 | 75.70183 | 24794 ft | 425 kts | 286° |
| 2026-05-05 09:42 | 43.35002 | 75.66217 | 25087 ft | 427 kts | 286° |
| 2026-05-05 09:42 | 43.35811 | 75.62347 | 25377 ft | 428 kts | 286° |
| 2026-05-05 09:42 | 43.36636 | 75.58416 | 25667 ft | 429 kts | 286° |
| 2026-05-05 09:43 | 43.37386 | 75.54443 | 25941 ft | 431 kts | 278° |
| 2026-05-05 09:43 | 43.37448 | 75.50312 | 26218 ft | 434 kts | 266° |
| 2026-05-05 09:43 | 43.37183 | 75.46182 | 26552 ft | 435 kts | 264° |
| 2026-05-05 09:43 | 43.36863 | 75.42032 | 26833 ft | 438 kts | 264° |
| 2026-05-05 09:44 | 43.36573 | 75.37860 | 27105 ft | 440 kts | 265° |
| 2026-05-05 09:44 | 43.36305 | 75.33671 | 27388 ft | 441 kts | 265° |
| 2026-05-05 09:44 | 43.36041 | 75.29470 | 27657 ft | 442 kts | 265° |
| 2026-05-05 09:44 | 43.35777 | 75.25255 | 27938 ft | 444 kts | 265° |
| 2026-05-05 09:45 | 43.35515 | 75.21023 | 28213 ft | 445 kts | 265° |
| 2026-05-05 09:45 | 43.35252 | 75.16781 | 28483 ft | 447 kts | 265° |
| 2026-05-05 09:45 | 43.34987 | 75.12514 | 28750 ft | 449 kts | 265° |
| 2026-05-05 09:45 | 43.34723 | 75.08237 | 29026 ft | 450 kts | 265° |
| 2026-05-05 09:46 | 43.34457 | 75.03948 | 29292 ft | 451 kts | 265° |
| 2026-05-05 09:46 | 43.34191 | 74.99649 | 29561 ft | 453 kts | 265° |
| 2026-05-05 09:46 | 43.33923 | 74.95336 | 29834 ft | 454 kts | 265° |
| 2026-05-05 09:46 | 43.33656 | 74.91011 | 30077 ft | 455 kts | 265° |
| 2026-05-05 09:47 | 43.33387 | 74.86677 | 30319 ft | 455 kts | 265° |
| 2026-05-05 09:47 | 43.33122 | 74.82353 | 30570 ft | 455 kts | 265° |
| 2026-05-05 09:47 | 43.32834 | 74.78028 | 30825 ft | 454 kts | 264° |
| 2026-05-05 09:47 | 43.32530 | 74.73713 | 31073 ft | 454 kts | 264° |
| 2026-05-05 09:48 | 43.32229 | 74.69403 | 31320 ft | 453 kts | 264° |
| 2026-05-05 09:48 | 43.31934 | 74.65098 | 31571 ft | 453 kts | 264° |
| 2026-05-05 09:48 | 43.27718 | 73.98737 | 31708 ft | 452 kts | 264° |
| 2026-05-05 09:48 | 43.27352 | 73.94463 | 31950 ft | 445 kts | 262° |
| 2026-05-05 09:49 | 43.26527 | 73.86040 | 31995 ft | 450 kts | 262° |
| 2026-05-05 09:49 | 43.25771 | 73.77430 | 32018 ft | 460 kts | 263° |
| 2026-05-05 09:50 | 43.25091 | 73.68657 | 32020 ft | 464 kts | 263° |
| 2026-05-05 09:50 | 43.24453 | 73.59865 | 32022 ft | 462 kts | 264° |
| 2026-05-05 09:51 | 43.23823 | 73.51105 | 32017 ft | 461 kts | 264° |
| 2026-05-05 09:51 | 43.23130 | 73.42363 | 32020 ft | 461 kts | 263° |
| 2026-05-05 09:52 | 43.22393 | 73.33615 | 32019 ft | 462 kts | 263° |
| 2026-05-05 09:52 | 43.21662 | 73.24862 | 32022 ft | 462 kts | 263° |
| 2026-05-05 09:53 | 43.21026 | 73.16092 | 32025 ft | 462 kts | 264° |
| 2026-05-05 09:53 | 43.20338 | 73.07328 | 32024 ft | 462 kts | 262° |
| 2026-05-05 09:54 | 43.18925 | 72.98755 | 32025 ft | 461 kts | 254° |
| 2026-05-05 09:54 | 43.17189 | 72.90290 | 32026 ft | 462 kts | 254° |
| 2026-05-05 09:55 | 43.15478 | 72.81812 | 32026 ft | 462 kts | 255° |
| 2026-05-05 09:55 | 43.13841 | 72.73301 | 32028 ft | 462 kts | 255° |
| 2026-05-05 09:56 | 43.12211 | 72.64789 | 32031 ft | 462 kts | 255° |
| 2026-05-05 09:56 | 43.10580 | 72.56274 | 32034 ft | 463 kts | 255° |
| 2026-05-05 09:57 | 43.08977 | 72.47800 | 32034 ft | 463 kts | 255° |
| 2026-05-05 09:57 | 43.07288 | 72.39296 | 32040 ft | 464 kts | 254° |
| 2026-05-05 09:58 | 43.05554 | 72.30762 | 32044 ft | 468 kts | 254° |
| 2026-05-05 09:58 | 43.03825 | 72.22141 | 32047 ft | 472 kts | 255° |
| 2026-05-05 09:59 | 43.02171 | 72.13452 | 32046 ft | 473 kts | 255° |
| 2026-05-05 09:59 | 43.00471 | 72.04777 | 32046 ft | 473 kts | 254° |
| 2026-05-05 10:00 | 42.98701 | 71.96119 | 32041 ft | 473 kts | 254° |
| 2026-05-05 10:00 | 42.96937 | 71.87478 | 32042 ft | 472 kts | 254° |
| 2026-05-05 10:01 | 42.95296 | 71.78799 | 32045 ft | 472 kts | 257° |
| 2026-05-05 10:01 | 42.93924 | 71.70041 | 32042 ft | 472 kts | 258° |
| 2026-05-05 10:02 | 42.92569 | 71.61285 | 32044 ft | 471 kts | 257° |
| 2026-05-05 10:02 | 42.91109 | 71.52561 | 32045 ft | 471 kts | 257° |
| 2026-05-05 10:03 | 42.89632 | 71.43851 | 32046 ft | 471 kts | 257° |
| 2026-05-05 10:03 | 42.88172 | 71.35139 | 32047 ft | 472 kts | 258° |
| 2026-05-05 10:04 | 42.86723 | 71.26417 | 32040 ft | 472 kts | 253° |
| 2026-05-05 10:04 | 42.84295 | 71.18102 | 32054 ft | 473 kts | 247° |
| 2026-05-05 10:05 | 42.81687 | 71.09942 | 32050 ft | 473 kts | 247° |
| 2026-05-05 10:05 | 42.79119 | 71.01689 | 32053 ft | 474 kts | 248° |
| 2026-05-05 10:06 | 42.76569 | 70.93423 | 32057 ft | 474 kts | 248° |
| 2026-05-05 10:06 | 42.74013 | 70.85152 | 32062 ft | 474 kts | 249° |
| 2026-05-05 10:07 | 42.71533 | 70.76845 | 32071 ft | 474 kts | 249° |
| 2026-05-05 10:07 | 42.69039 | 70.68545 | 32074 ft | 474 kts | 248° |
| 2026-05-05 10:08 | 42.66462 | 70.60312 | 32074 ft | 473 kts | 249° |
| 2026-05-05 10:08 | 42.64128 | 70.51967 | 32075 ft | 473 kts | 251° |
| 2026-05-05 10:09 | 42.61878 | 70.43566 | 32062 ft | 475 kts | 245° |
| 2026-05-05 10:09 | 42.60033 | 70.39846 | 32044 ft | 478 kts | 229° |
| 2026-05-05 10:09 | 42.57696 | 70.36653 | 32090 ft | 478 kts | 225° |
| 2026-05-05 10:10 | 42.52835 | 70.30507 | 32082 ft | 478 kts | 225° |
| 2026-05-05 10:10 | 42.48062 | 70.24250 | 32073 ft | 477 kts | 226° |
| 2026-05-05 10:11 | 42.43331 | 70.17968 | 32075 ft | 476 kts | 226° |
| 2026-05-05 10:11 | 42.38659 | 70.11630 | 32068 ft | 475 kts | 227° |
| 2026-05-05 10:12 | 42.33964 | 70.05343 | 32067 ft | 475 kts | 226° |
| 2026-05-05 10:12 | 42.29266 | 69.99096 | 32064 ft | 474 kts | 227° |
| 2026-05-05 10:13 | 42.24605 | 69.92815 | 32062 ft | 473 kts | 226° |
| 2026-05-05 10:13 | 42.19915 | 69.86604 | 32054 ft | 472 kts | 227° |
| 2026-05-05 10:14 | 42.15502 | 69.80102 | 32020 ft | 469 kts | 240° |
| 2026-05-05 10:14 | 42.12684 | 69.72211 | 32061 ft | 468 kts | 248° |
| 2026-05-05 10:15 | 42.10082 | 69.64170 | 32044 ft | 468 kts | 247° |
| 2026-05-05 10:15 | 42.07401 | 69.56183 | 32041 ft | 468 kts | 247° |
| 2026-05-05 10:16 | 42.04670 | 69.48238 | 32039 ft | 468 kts | 246° |
| 2026-05-05 10:16 | 42.01881 | 69.40315 | 32038 ft | 469 kts | 246° |
| 2026-05-05 10:17 | 41.99097 | 69.32390 | 32032 ft | 468 kts | 246° |
| 2026-05-05 10:17 | 41.96325 | 69.24479 | 32028 ft | 468 kts | 246° |
| 2026-05-05 10:18 | 41.93301 | 69.16737 | 32020 ft | 469 kts | 237° |
| 2026-05-05 10:18 | 41.89576 | 69.09601 | 31942 ft | 472 kts | 236° |
| 2026-05-05 10:19 | 41.87662 | 69.05981 | 31533 ft | 477 kts | 236° |
| 2026-05-05 10:19 | 41.85756 | 69.02376 | 31052 ft | 469 kts | 236° |
| 2026-05-05 10:19 | 41.83882 | 68.98832 | 30398 ft | 464 kts | 236° |
| 2026-05-05 10:19 | 41.82033 | 68.95319 | 29867 ft | 458 kts | 236° |
| 2026-05-05 10:20 | 41.80222 | 68.91852 | 29380 ft | 451 kts | 236° |
| 2026-05-05 10:20 | 41.78469 | 68.88409 | 28914 ft | 444 kts | 237° |
| 2026-05-05 10:20 | 41.76749 | 68.85011 | 28344 ft | 438 kts | 237° |
| 2026-05-05 10:20 | 41.75048 | 68.81647 | 27828 ft | 433 kts | 237° |
| 2026-05-05 10:21 | 41.73359 | 68.78332 | 27371 ft | 431 kts | 236° |
| 2026-05-05 10:21 | 41.71636 | 68.75041 | 26908 ft | 432 kts | 236° |
| 2026-05-05 10:21 | 41.69906 | 68.71761 | 26454 ft | 431 kts | 236° |
| 2026-05-05 10:21 | 41.68185 | 68.68492 | 26000 ft | 427 kts | 236° |
| 2026-05-05 10:22 | 41.66480 | 68.65260 | 25492 ft | 423 kts | 235° |
| 2026-05-05 10:22 | 41.64408 | 68.62426 | 24554 ft | 433 kts | 216° |
| 2026-05-05 10:22 | 41.61657 | 68.60748 | 23726 ft | 438 kts | 193° |
| 2026-05-05 10:22 | 41.58657 | 68.60604 | 23225 ft | 430 kts | 171° |
| 2026-05-05 10:23 | 41.55873 | 68.61929 | 22735 ft | 426 kts | 151° |
| 2026-05-05 10:23 | 41.53405 | 68.64096 | 22251 ft | 423 kts | 146° |
| 2026-05-05 10:23 | 41.51023 | 68.66369 | 21762 ft | 420 kts | 146° |
| 2026-05-05 10:23 | 41.48651 | 68.68629 | 21188 ft | 418 kts | 146° |
| 2026-05-05 10:24 | 41.46277 | 68.70881 | 20545 ft | 419 kts | 146° |
| 2026-05-05 10:24 | 41.43880 | 68.73078 | 20031 ft | 417 kts | 147° |
| 2026-05-05 10:24 | 41.41475 | 68.75197 | 19563 ft | 413 kts | 148° |
| 2026-05-05 10:24 | 41.39086 | 68.77293 | 19096 ft | 410 kts | 148° |
| 2026-05-05 10:25 | 41.36692 | 68.79359 | 18537 ft | 410 kts | 149° |
| 2026-05-05 10:25 | 41.34288 | 68.81425 | 17889 ft | 411 kts | 148° |
| 2026-05-05 10:25 | 41.31904 | 68.83513 | 17248 ft | 411 kts | 148° |
| 2026-05-05 10:25 | 41.29540 | 68.85589 | 16719 ft | 403 kts | 147° |
| 2026-05-05 10:26 | 41.27437 | 68.87973 | 16215 ft | 395 kts | 132° |
| 2026-05-05 10:26 | 41.25684 | 68.90778 | 15603 ft | 395 kts | 129° |
| 2026-05-05 10:26 | 41.23969 | 68.93621 | 15153 ft | 393 kts | 129° |
| 2026-05-05 10:26 | 41.22264 | 68.96439 | 14643 ft | 387 kts | 130° |
| 2026-05-05 10:27 | 41.20581 | 68.99156 | 14149 ft | 377 kts | 131° |
| 2026-05-05 10:27 | 41.18925 | 69.01819 | 13604 ft | 370 kts | 131° |
| 2026-05-05 10:27 | 41.17287 | 69.04428 | 13191 ft | 364 kts | 131° |
| 2026-05-05 10:27 | 41.15673 | 69.06965 | 12687 ft | 356 kts | 131° |
| 2026-05-05 10:28 | 41.14148 | 69.09551 | 11959 ft | 355 kts | 132° |
| 2026-05-05 10:28 | 41.12528 | 69.12012 | 11274 ft | 353 kts | 134° |
| 2026-05-05 10:28 | 41.11124 | 69.14595 | 11164 ft | 342 kts | 124° |
| 2026-05-05 10:28 | 41.09565 | 69.16979 | 11136 ft | 350 kts | 143° |
| 2026-05-05 10:29 | 41.07612 | 69.18972 | 11195 ft | 356 kts | 146° |
| 2026-05-05 10:29 | 41.05842 | 69.21277 | 11048 ft | 362 kts | 125° |
| 2026-05-05 10:29 | 41.04965 | 69.24359 | 10921 ft | 356 kts | 98° |
| 2026-05-05 10:29 | 41.05195 | 69.27544 | 10728 ft | 345 kts | 70° |
| 2026-05-05 10:30 | 41.06448 | 69.30151 | 10481 ft | 333 kts | 41° |
| 2026-05-05 10:30 | 41.08358 | 69.31779 | 10218 ft | 322 kts | 26° |
| 2026-05-05 10:30 | 41.10234 | 69.33258 | 9937 ft | 316 kts | 34° |
| 2026-05-05 10:30 | 41.11988 | 69.35070 | 9538 ft | 314 kts | 39° |
| 2026-05-05 10:31 | 41.13646 | 69.36882 | 9159 ft | 311 kts | 39° |
| 2026-05-05 10:31 | 41.15278 | 69.38727 | 8860 ft | 306 kts | 46° |
| 2026-05-05 10:31 | 41.16335 | 69.41125 | 8446 ft | 302 kts | 75° |
| 2026-05-05 10:31 | 41.16802 | 69.43796 | 8218 ft | 293 kts | 79° |
| 2026-05-05 10:32 | 41.17234 | 69.46420 | 7863 ft | 290 kts | 78° |
| 2026-05-05 10:32 | 41.17668 | 69.49037 | 7518 ft | 289 kts | 78° |
| 2026-05-05 10:32 | 41.18098 | 69.51628 | 7201 ft | 287 kts | 78° |
| 2026-05-05 10:32 | 41.18604 | 69.54180 | 6843 ft | 285 kts | 66° |
| 2026-05-05 10:33 | 41.19794 | 69.56240 | 6423 ft | 283 kts | 33° |
| 2026-05-05 10:33 | 41.21594 | 69.57066 | 6154 ft | 273 kts | 359° |
| 2026-05-05 10:33 | 41.23403 | 69.56547 | 5949 ft | 262 kts | 338° |
| 2026-05-05 10:33 | 41.25073 | 69.55700 | 5785 ft | 254 kts | 338° |
| 2026-05-05 10:34 | 41.26717 | 69.54829 | 5403 ft | 254 kts | 326° |
| 2026-05-05 10:34 | 41.27917 | 69.53144 | 4939 ft | 254 kts | 292° |
| 2026-05-05 10:34 | 41.28231 | 69.50885 | 4705 ft | 247 kts | 266° |
| 2026-05-05 10:34 | 41.27989 | 69.48661 | 4510 ft | 238 kts | 259° |
| 2026-05-05 10:35 | 41.27717 | 69.46532 | 4197 ft | 229 kts | 261° |
| 2026-05-05 10:35 | 41.27478 | 69.44494 | 3887 ft | 219 kts | 260° |
| 2026-05-05 10:35 | 41.27249 | 69.42530 | 3556 ft | 211 kts | 261° |
| 2026-05-05 10:35 | 41.27042 | 69.40644 | 3264 ft | 203 kts | 260° |
| 2026-05-05 10:36 | 41.26835 | 69.38820 | 2975 ft | 194 kts | 261° |
| 2026-05-05 10:36 | 41.26722 | 69.37687 | 2781 ft | 181 kts | 261° |
| 2026-05-05 10:36 | 41.26480 | 69.35596 | 2385 ft | 162 kts | 261° |
| 2026-05-05 10:36 | 41.26371 | 69.34644 | 2208 ft | 152 kts | 262° |
| 2026-05-05 10:37 | 41.26316 | 69.33310 | 1937 ft | 141 kts | 268° |
| 2026-05-05 10:37 | 41.26248 | 69.32051 | 1684 ft | 135 kts | 264° |
| 2026-05-05 10:37 | 41.26139 | 69.30783 | 1525 ft | 142 kts | 262° |
| 2026-05-05 10:37 | 41.26019 | 69.29501 | 1442 ft | 132 kts | 258° |
| 2026-05-05 10:38 | 41.25870 | 69.28364 | 1404 ft | 100 kts | 263° |
| 2026-05-05 10:38 | 41.25827 | 69.27929 | 1405 ft | 49 kts | 257° |
| 2026-05-05 10:38 | 41.25809 | 69.27532 | 1407 ft | 32 kts | 304° |
| 2026-05-05 10:38 | 41.25861 | 69.27472 | 1405 ft | 1 kts | 320° |
| 2026-05-05 10:39 | 41.25895 | 69.27436 | 1408 ft | 18 kts | 321° |
| 2026-05-05 10:39 | 41.26003 | 69.27319 | 1410 ft | 17 kts | 320° |
| 2026-05-05 10:39 | 41.26122 | 69.27167 | 1411 ft | 21 kts | 302° |
| 2026-05-05 10:39 | 41.26090 | 69.27018 | 1407 ft | 0 kts | 248° |
| 2026-05-05 10:40 | 41.26089 | 69.27014 | 1406 ft | 2 kts | 248° |
| 2026-05-05 10:40 | 41.26054 | 69.26903 | 1411 ft | 16 kts | 248° |
| 2026-05-05 10:40 | 41.25977 | 69.26686 | 1408 ft | 27 kts | 236° |
| 2026-05-05 10:40 | 41.25972 | 69.26554 | 1408 ft | 1 kts | 351° |
| 2026-05-05 10:41 | 41.25987 | 69.26557 | 1408 ft | 8 kts | 18° |
| 2026-05-05 10:41 | 41.26046 | 69.26602 | 1410 ft | 9 kts | 62° |
| 2026-05-05 10:41 | 41.26052 | 69.26618 | 1403 ft | 0 kts | 69° |